createdAt,value
2022-12-20T06:32:49.552Z,30.4
2022-12-20T06:35:07.208Z,28.1
2022-12-20T06:37:25.648Z,29.1
2022-12-20T06:39:45.188Z,31.9
2022-12-20T06:42:04.525Z,32
2022-12-20T06:44:24.297Z,31.4
2022-12-20T06:49:46.803Z,32.7
2022-12-20T06:52:04.706Z,30.7
2022-12-20T06:54:22.654Z,30.4
2022-12-20T06:56:55.586Z,28.7
2022-12-20T07:00:52.738Z,29.6
2022-12-20T07:02:53.244Z,30.2
2022-12-20T10:15:01.755Z,33.1
2022-12-20T10:17:20.868Z,32.1
2022-12-20T10:19:40.405Z,32.1
2022-12-20T10:21:59.304Z,33.5
2022-12-20T10:24:18.036Z,33.1
2022-12-20T10:26:37.782Z,32.7
2022-12-20T10:28:55.564Z,32.1
2022-12-20T10:31:13.560Z,32.7
2022-12-20T10:33:31.126Z,28.5
2022-12-20T10:35:50.216Z,33
2022-12-20T10:38:10.070Z,32.3
2022-12-20T10:40:46.567Z,33.2
2022-12-20T10:43:11.201Z,32.7
2022-12-20T10:47:47.460Z,33.4
2022-12-20T10:50:05.972Z,32
2022-12-20T10:54:42.386Z,32.3
2022-12-20T10:56:59.995Z,30.4
2022-12-20T10:59:17.390Z,30.4
2022-12-20T11:01:34.852Z,29.3
2022-12-20T11:03:52.589Z,31.7
2022-12-20T11:06:10.685Z,32.4
2022-12-20T11:11:07.404Z,32.1
2022-12-20T11:13:25.303Z,33.5
2022-12-20T11:15:43.015Z,31.9
2022-12-20T11:18:01.055Z,31.8
2022-12-20T11:20:18.262Z,30.4
2022-12-20T11:22:35.616Z,29.8
2022-12-20T11:24:53.392Z,30.7
2022-12-20T11:31:46.090Z,30.4
2022-12-20T11:34:03.259Z,29.9
2022-12-20T11:40:55.497Z,29.6
2022-12-20T11:43:12.955Z,29.9
2022-12-20T11:50:26.017Z,30.6
2022-12-20T11:52:43.535Z,29.9
2022-12-20T11:55:00.894Z,30.4
2022-12-20T11:57:17.773Z,30.9
2022-12-20T11:59:53.433Z,28.4
2022-12-20T12:04:26.775Z,29.4
2022-12-20T12:06:44.215Z,29.8
2022-12-20T12:09:02.308Z,30.9
2022-12-20T12:14:09.262Z,30.6
2022-12-20T12:18:44.877Z,30.4
2022-12-20T12:21:06.781Z,29.5
2022-12-20T12:23:17.986Z,28.4
2022-12-20T12:27:50.881Z,27.6
2022-12-20T12:30:07.237Z,26
2022-12-20T12:36:55.986Z,25.2
2022-12-20T12:39:12.046Z,23.8
2022-12-20T12:41:27.950Z,24
2022-12-20T12:46:00.607Z,23.8
2022-12-20T12:48:15.652Z,23.7
2022-12-20T12:52:47.964Z,22.9
2022-12-20T12:55:02.732Z,23.4
2022-12-20T12:57:44.582Z,22.9
2022-12-20T13:00:00.265Z,22.6
2022-12-20T13:13:34.186Z,22.9
2022-12-20T13:15:49.874Z,22.8
2022-12-20T13:18:28.379Z,23
2022-12-20T13:20:44.064Z,22.6
2022-12-20T13:22:59.740Z,22.9
2022-12-20T13:25:15.503Z,22.8
2022-12-20T13:27:31.006Z,22.7
2022-12-20T13:32:02.325Z,22.6
2022-12-20T13:34:18.282Z,22.8
2022-12-20T13:36:33.638Z,22.8
2022-12-20T13:38:49.255Z,22.9
2022-12-20T13:41:04.942Z,22.8
2022-12-20T13:45:36.240Z,22.3
2022-12-20T13:47:51.839Z,22.6
2022-12-20T13:50:07.339Z,22.2
2022-12-20T13:52:22.989Z,22.6
2022-12-20T13:54:38.602Z,22.2
2022-12-20T13:56:54.229Z,22.4
2022-12-20T13:59:09.868Z,22.4
2022-12-20T14:01:25.851Z,22.4
2022-12-20T14:03:41.283Z,22.7
2022-12-20T14:05:56.648Z,22.8
2022-12-20T14:08:12.298Z,22.4
2022-12-20T14:14:58.450Z,18.6
2022-12-20T14:19:29.197Z,18.8
2022-12-20T14:26:15.912Z,22.7
2022-12-20T14:28:30.387Z,19.1
2022-12-20T14:30:45.648Z,18.9
2022-12-20T14:33:00.473Z,19.2
2022-12-20T14:35:15.357Z,19.1
2022-12-20T14:37:30.192Z,20.1
2022-12-20T14:42:01.163Z,23.3
2022-12-20T14:44:16.561Z,23
2022-12-20T14:46:32.034Z,20.3
2022-12-20T14:48:47.654Z,23.2
2022-12-20T14:51:03.282Z,22.7
2022-12-20T14:53:18.925Z,22.5
2022-12-20T15:00:31.101Z,20.2
2022-12-20T15:05:02.440Z,22.8
2022-12-20T15:07:21.485Z,22.5
2022-12-20T15:11:48.492Z,22.9
2022-12-20T15:16:30.673Z,20.2
2022-12-20T15:18:44.817Z,20.4
2022-12-20T15:20:59.712Z,20.4
2022-12-20T15:23:14.490Z,20.4
2022-12-20T15:27:44.204Z,19.9
2022-12-20T15:29:59.076Z,20.1
2022-12-20T15:32:14.215Z,20.2
2022-12-20T15:34:29.745Z,23
2022-12-20T15:36:44.473Z,20.5
2022-12-20T15:39:15.683Z,20.5
2022-12-20T15:41:30.273Z,22.9
2022-12-20T15:43:45.951Z,22.3
2022-12-20T15:48:17.209Z,22.1
2022-12-20T15:50:32.699Z,22.1
2022-12-20T15:52:48.276Z,22.2
2022-12-20T15:55:03.982Z,22.1
2022-12-20T15:57:19.431Z,22.3
2022-12-20T16:02:18.116Z,22.2
2022-12-20T16:06:49.275Z,22.3
2022-12-20T16:09:04.816Z,22.6
2022-12-20T16:13:35.861Z,22.8
2022-12-20T16:15:51.474Z,22.1
2022-12-20T16:20:23.205Z,22.1
2022-12-20T16:22:38.151Z,22.2
2022-12-20T16:24:54.095Z,22.2
2022-12-20T16:29:24.792Z,22.3
2022-12-20T16:31:40.395Z,22
2022-12-20T16:33:55.847Z,22.2
2022-12-20T16:36:11.550Z,22.3
2022-12-20T16:42:58.167Z,22.3
2022-12-20T16:45:14.443Z,21.8
2022-12-20T16:52:00.364Z,21.9
2022-12-20T16:57:15.744Z,22.1
2022-12-20T16:59:51.532Z,22.1
2022-12-20T17:02:07.080Z,21.6
2022-12-20T17:04:22.474Z,22.2
2022-12-20T17:06:38.014Z,21.9
2022-12-20T17:12:11.198Z,22.4
2022-12-20T17:24:15.930Z,22.6
2022-12-20T17:31:07.959Z,21.8
2022-12-20T17:33:18.246Z,21.9
2022-12-20T17:35:34.026Z,21.8
2022-12-20T17:37:49.309Z,21.8
2022-12-20T17:40:04.332Z,22.3
2022-12-20T17:53:38.245Z,21.9
2022-12-20T17:55:53.855Z,21.8
2022-12-20T17:58:09.312Z,21.8
2022-12-20T18:02:40.635Z,22.3
2022-12-20T18:05:22.049Z,22
2022-12-20T18:09:52.935Z,21.7
2022-12-20T18:12:08.499Z,22
2022-12-20T18:14:23.959Z,21.9
2022-12-20T18:18:55.231Z,21.9
2022-12-20T18:23:26.319Z,22.1
2022-12-20T18:25:41.841Z,21.9
2022-12-20T18:27:57.427Z,22
2022-12-20T18:30:12.902Z,22.1
2022-12-20T18:32:28.548Z,21.6
2022-12-20T18:36:59.672Z,21.8
2022-12-20T18:39:15.239Z,21.8
2022-12-20T18:46:02.306Z,22.1
2022-12-20T18:52:49.061Z,22.8
2022-12-20T18:55:04.748Z,22.6
2022-12-20T18:59:36.229Z,22.5
2022-12-20T19:01:52.097Z,22.6
2022-12-20T19:04:07.826Z,22.6
2022-12-20T19:06:23.303Z,22.5
2022-12-20T19:10:54.661Z,22.6
2022-12-20T19:13:10.279Z,22.8
2022-12-20T19:15:26.006Z,22.3
2022-12-20T19:17:41.868Z,22.5
2022-12-20T19:19:57.523Z,22.4
2022-12-20T19:22:13.095Z,22.4
2022-12-20T19:24:29.304Z,22.5
2022-12-20T19:26:44.627Z,22.2
2022-12-20T19:29:00.237Z,22.2
2022-12-20T19:31:21.444Z,22.3
2022-12-20T19:33:31.607Z,22.1
2022-12-20T19:36:36.791Z,22.3
2022-12-20T19:38:52.320Z,22.5
2022-12-20T19:41:07.999Z,22.4
2022-12-20T19:43:41.417Z,22.1
2022-12-20T19:45:57.171Z,22.6
2022-12-20T19:50:28.502Z,22.8
2022-12-20T19:52:44.177Z,22.7
2022-12-20T19:54:59.938Z,22.3
2022-12-20T19:57:15.615Z,22.6
2022-12-20T19:59:31.280Z,22.6
2022-12-20T20:04:02.740Z,21.9
2022-12-20T20:06:18.334Z,22.4
2022-12-20T20:08:33.998Z,22.4
2022-12-20T20:10:49.672Z,22.6
2022-12-20T20:13:05.426Z,22.7
2022-12-20T20:15:21.090Z,22.3
2022-12-20T20:17:36.799Z,22
2022-12-20T20:19:52.993Z,23
2022-12-20T20:22:07.861Z,22.5
2022-12-20T20:26:39.018Z,22.7
2022-12-20T20:31:10.257Z,22.3
2022-12-20T20:33:26.164Z,22.4
2022-12-20T20:35:41.591Z,22.6
2022-12-20T20:37:57.336Z,22.2
2022-12-20T20:40:13.025Z,22.8
2022-12-20T20:42:28.722Z,23
2022-12-20T20:44:44.478Z,22.4
2022-12-20T20:49:15.811Z,22.6
2022-12-20T20:51:31.639Z,22.2
2022-12-20T20:53:47.276Z,22.1
2022-12-20T20:56:02.855Z,22.5
2022-12-20T21:02:48.884Z,20.4
2022-12-20T21:06:32.722Z,20.2
2022-12-20T21:08:38.328Z,22.8
2022-12-20T21:10:54.228Z,22.4
2022-12-20T21:13:09.727Z,22.4
2022-12-20T21:15:55.129Z,20.5
2022-12-20T21:18:10.997Z,23.3
2022-12-20T21:22:42.681Z,22.5
2022-12-20T21:27:14.136Z,22.4
2022-12-20T21:31:45.386Z,22.6
2022-12-20T21:34:00.931Z,22.6
2022-12-20T21:36:16.709Z,22.7
2022-12-20T21:38:32.616Z,22.4
2022-12-20T21:40:48.330Z,22.4
2022-12-20T21:43:04.200Z,22.4
2022-12-20T21:45:19.901Z,22.2
2022-12-20T21:49:50.303Z,19.9
2022-12-20T21:52:06.047Z,20.3
2022-12-20T21:54:21.283Z,22.9
2022-12-20T21:56:36.853Z,19.8
2022-12-20T21:58:51.658Z,20.1
2022-12-20T22:01:07.529Z,22.2
2022-12-20T22:03:23.623Z,22.5
2022-12-20T22:05:38.880Z,23.3
2022-12-20T22:07:54.005Z,20.1
2022-12-20T22:10:09.079Z,20.2
2022-12-20T22:12:24.870Z,23
2022-12-20T22:14:39.713Z,20.1
2022-12-20T22:16:54.894Z,20.2
2022-12-20T22:19:09.603Z,19.6
2022-12-20T22:21:24.351Z,19.9
2022-12-20T22:25:54.311Z,19.7
2022-12-20T22:28:09.444Z,19.7
2022-12-20T22:30:24.287Z,19.9
2022-12-20T22:34:54.122Z,20.3
2022-12-20T22:41:39.412Z,19.9
2022-12-20T22:49:31.846Z,22.8
2022-12-20T22:51:53.795Z,20.3
2022-12-20T22:54:01.628Z,20.4
2022-12-20T22:56:16.794Z,20.1
2022-12-20T23:00:47.131Z,19.4
2022-12-20T23:03:02.051Z,20.1
2022-12-20T23:05:16.798Z,19.9
2022-12-20T23:07:31.983Z,19.9
2022-12-20T23:17:20.936Z,19.3
2022-12-20T23:19:35.350Z,19.8
2022-12-20T23:21:50.058Z,20
2022-12-20T23:24:04.944Z,19.9
2022-12-20T23:26:19.791Z,19.8
2022-12-20T23:28:34.556Z,19.7
2022-12-20T23:30:49.408Z,20.1
2022-12-20T23:33:04.623Z,20
2022-12-20T23:35:20.228Z,22.9
2022-12-20T23:37:35.643Z,20.2
2022-12-20T23:39:49.853Z,20.1
2022-12-20T23:42:04.606Z,20
2022-12-20T23:44:19.570Z,19.7
2022-12-20T23:46:34.394Z,19.9
2022-12-20T23:51:04.086Z,19.8
2022-12-20T23:53:19.331Z,20.1
2022-12-20T23:55:34.726Z,22.9
2022-12-20T23:57:49.572Z,20
